Time;durP1;ratioP1;P1;durP2;ratioP2;P2;SDS_P1;SDS_P2;PMS_P1;PMS_P2;Temp;Humidity;BMP_temperature;BMP_pressure;BME280_temperature;BME280_humidity;BME280_pressure;Samples;Min_cycle;Max_cycle;Signal;HPM_P1;HPM_P2
2023/01/21 00:02:29;;;;;;;;;;;;;;;28.40;62.84;101009.97;5080489;27;66282;-38
2023/01/21 00:05:00;;;;;;;;;;;;;;;28.41;62.93;101011.59;5086499;27;68943;-37
2023/01/21 00:07:30;;;;;;;;;;;;;;;28.40;63.63;101009.97;5087525;27;66972;-36
2023/01/21 00:10:00;;;;;;;;;;;;;;;28.42;63.84;101007.06;5086832;27;69819;-36
2023/01/21 00:12:31;;;;;;;;;;;;;;;28.43;63.99;101009.59;5079977;27;67060;-35
2023/01/21 00:15:01;;;;;;;;;;;;;;;28.47;65.15;101018.09;5078508;27;70515;-37
2023/01/21 00:17:34;;;;;;;;;;;;;;;28.46;65.55;101017.28;5076034;27;66816;-40
2023/01/21 00:20:05;;;;;;;;;;;;;;;28.51;65.57;101025.59;5074598;27;69960;-37
2023/01/21 00:22:35;;;;;;;;;;;;;;;28.54;65.46;101031.63;5086805;27;65297;-37
2023/01/21 00:25:06;;;;;;;;;;;;;;;28.56;65.71;101029.59;5082560;27;69523;-39
2023/01/21 00:27:37;;;;;;;;;;;;;;;28.59;66.01;101034.56;5064254;27;66438;-37
2023/01/21 00:30:09;;;;;;;;;;;;;;;28.60;65.98;101041.63;5083078;27;69732;-37
2023/01/21 00:32:40;;;;;;;;;;;;;;;28.63;66.25;101043.91;5076557;27;66015;-37
2023/01/21 00:35:10;;;;;;;;;;;;;;;28.63;66.27;101047.44;5080421;27;70162;-38
2023/01/21 00:37:41;;;;;;;;;;;;;;;28.65;65.36;101044.56;5059269;27;66287;-35
2023/01/21 00:40:12;;;;;;;;;;;;;;;28.64;64.83;101050.97;5086171;27;69663;-34
2023/01/21 00:42:43;;;;;;;;;;;;;;;28.64;64.83;101053.66;5077114;27;65531;-33
2023/01/21 00:45:14;;;;;;;;;;;;;;;28.64;64.14;101050.97;5086298;27;69563;-34
2023/01/21 00:47:44;;;;;;;;;;;;;;;28.64;64.28;101056.38;5081862;27;65906;-33
2023/01/21 00:50:14;;;;;;;;;;;;;;;28.65;63.51;101066.16;5086531;27;69773;-33
2023/01/21 00:52:45;;;;;;;;;;;;;;;28.63;63.91;101073.59;5019759;27;64395;-33
2023/01/21 00:55:16;;;;;;;;;;;;;;;28.64;64.21;101075.25;5084883;27;69818;-33
2023/01/21 00:57:46;;;;;;;;;;;;;;;28.64;64.18;101081.53;5087011;27;66777;-33
2023/01/21 01:00:18;;;;;;;;;;;;;;;28.66;64.33;101081.31;5068108;27;69382;-34
2023/01/21 01:02:48;;;;;;;;;;;;;;;28.67;63.71;101093.78;5090805;27;66168;-34
2023/01/21 01:05:21;;;;;;;;;;;;;;;28.70;63.16;101096.09;5072722;27;70708;-33
2023/01/21 01:07:51;;;;;;;;;;;;;;;28.72;63.26;101100.25;5082995;27;66889;-33
2023/01/21 01:10:22;;;;;;;;;;;;;;;28.72;62.57;101097.56;5083086;27;69507;-33
2023/01/21 01:12:52;;;;;;;;;;;;;;;28.78;62.80;101103.16;5066700;27;65339;-34
2023/01/21 01:15:23;;;;;;;;;;;;;;;28.78;62.20;101098.63;5080787;27;70124;-39
2023/01/21 01:17:53;;;;;;;;;;;;;;;28.80;62.58;101101.91;5082689;27;65675;-33
2023/01/21 01:20:24;;;;;;;;;;;;;;;28.81;62.09;101109.00;5085742;27;70212;-34
2023/01/21 01:22:55;;;;;;;;;;;;;;;28.83;62.37;101117.72;5082637;27;65247;-32
2023/01/21 01:25:26;;;;;;;;;;;;;;;28.83;61.88;101112.31;5079945;27;69738;-34
2023/01/21 01:27:56;;;;;;;;;;;;;;;28.86;62.19;101113.78;5083796;27;66472;-33
2023/01/21 01:30:26;;;;;;;;;;;;;;;28.87;61.70;101116.31;5078621;27;69387;-33
2023/01/21 01:32:57;;;;;;;;;;;;;;;28.88;61.77;101115.25;5082286;27;67235;-34
2023/01/21 01:35:27;;;;;;;;;;;;;;;28.89;61.48;101122.34;5084840;27;70358;-33
2023/01/21 01:38:06;;;;;;;;;;;;;;;28.90;61.84;101124.00;5076522;27;66823;-34
2023/01/21 01:40:39;;;;;;;;;;;;;;;28.91;61.89;101120.25;5089215;27;70223;-33
2023/01/21 01:43:15;;;;;;;;;;;;;;;28.93;61.44;101130.84;5088013;27;66083;-33
2023/01/21 01:45:46;;;;;;;;;;;;;;;28.94;61.94;101127.94;5083729;27;70404;-34
2023/01/21 01:48:19;;;;;;;;;;;;;;;28.95;61.43;101129.63;5091411;27;66238;-34
2023/01/21 01:50:50;;;;;;;;;;;;;;;28.94;61.69;101125.25;5095034;27;70043;-34
2023/01/21 01:53:22;;;;;;;;;;;;;;;28.91;60.79;101120.25;5080562;27;66565;-33
2023/01/21 01:55:54;;;;;;;;;;;;;;;28.80;60.65;101112.72;5087395;27;70706;-35
2023/01/21 01:58:25;;;;;;;;;;;;;;;28.77;61.56;101115.00;5087886;27;66616;-34
2023/01/21 02:00:55;;;;;;;;;;;;;;;28.74;61.87;101113.53;5077145;27;70585;-33
2023/01/21 02:03:49;;;;;;;;;;;;;;;28.75;62.39;101115.19;5067318;27;66546;-34
2023/01/21 02:06:19;;;;;;;;;;;;;;;28.72;62.35;101110.19;5053109;27;70346;-34
2023/01/21 02:08:50;;;;;;;;;;;;;;;28.71;63.00;101111.22;5079695;27;65821;-38
2023/01/21 02:11:21;;;;;;;;;;;;;;;28.72;62.91;101111.06;5080548;27;69270;-34
2023/01/21 02:13:57;;;;;;;;;;;;;;;28.72;62.20;101116.44;5073625;27;65246;-35
2023/01/21 02:16:33;;;;;;;;;;;;;;;28.71;62.99;101105.84;5081498;27;71027;-36
2023/01/21 02:19:22;;;;;;;;;;;;;;;28.71;63.46;101103.97;5079647;27;66693;-33
2023/01/21 02:21:56;;;;;;;;;;;;;;;28.74;63.85;101108.13;5081598;27;69798;-35
2023/01/21 02:24:45;;;;;;;;;;;;;;;28.76;64.42;101106.06;5078356;27;65724;-33
2023/01/21 02:27:31;;;;;;;;;;;;;;;28.77;64.33;101101.50;5080297;27;70345;-34
2023/01/21 02:30:14;;;;;;;;;;;;;;;28.81;64.80;101097.38;5081694;27;66061;-35
2023/01/21 02:32:51;;;;;;;;;;;;;;;28.82;65.32;101091.75;5083982;27;69629;-33
2023/01/21 02:35:42;;;;;;;;;;;;;;;28.84;65.25;101092.41;5081084;27;66422;-33
2023/01/21 02:38:22;;;;;;;;;;;;;;;28.82;62.27;101083.66;5083306;27;70449;-33
2023/01/21 02:41:10;;;;;;;;;;;;;;;28.82;63.08;101091.75;5082888;27;66557;-37
2023/01/21 02:44:10;;;;;;;;;;;;;;;28.85;63.25;101099.47;5083618;27;69978;-35
2023/01/21 02:46:52;;;;;;;;;;;;;;;28.92;62.94;101103.03;5072454;27;66034;-34
2023/01/21 02:49:28;;;;;;;;;;;;;;;28.99;62.72;101096.81;5084483;27;71034;-34
2023/01/21 02:51:59;;;;;;;;;;;;;;;29.04;62.87;101102.47;5083818;27;65273;-33
2023/01/21 02:54:38;;;;;;;;;;;;;;;29.08;62.45;101098.31;5086518;27;70041;-34
2023/01/21 02:57:16;;;;;;;;;;;;;;;29.14;62.72;101103.75;5081701;27;66976;-34
2023/01/21 02:59:49;;;;;;;;;;;;;;;29.18;62.15;101105.00;5067616;27;70155;-34
2023/01/21 03:02:19;;;;;;;;;;;;;;;29.23;62.68;101095.47;5087480;27;66598;-34
2023/01/21 03:04:52;;;;;;;;;;;;;;;29.26;62.21;101098.59;5082383;27;69416;-35
2023/01/21 03:07:33;;;;;;;;;;;;;;;29.30;62.54;101097.13;5086611;27;66495;-34
2023/01/21 03:10:09;;;;;;;;;;;;;;;29.34;62.04;101106.50;5082654;27;69785;-36
2023/01/21 03:12:47;;;;;;;;;;;;;;;29.37;62.07;101092.59;5075438;27;66658;-34
2023/01/21 03:18:38;;;;;;;;;;;;;;;29.35;63.74;101083.84;5017539;28;66699;-35
2023/01/21 03:21:12;;;;;;;;;;;;;;;29.36;63.32;101082.81;5002294;28;69320;-35
2023/01/21 03:23:45;;;;;;;;;;;;;;;29.42;63.08;101086.56;5055006;27;66283;-34
2023/01/21 03:26:18;;;;;;;;;;;;;;;29.45;62.67;101071.78;5050046;27;70034;-35
2023/01/21 03:28:51;;;;;;;;;;;;;;;29.49;62.48;101082.00;5084131;27;66623;-34
2023/01/21 03:31:26;;;;;;;;;;;;;;;29.54;62.83;101067.88;5083533;27;70668;-34
2023/01/21 03:33:59;;;;;;;;;;;;;;;29.55;62.62;101066.81;5080899;27;65298;-35
2023/01/21 03:36:39;;;;;;;;;;;;;;;29.47;62.68;101064.31;5078710;27;70121;-35
2023/01/21 03:39:29;;;;;;;;;;;;;;;29.43;63.42;101069.31;5081158;27;66320;-34
2023/01/21 03:42:00;;;;;;;;;;;;;;;29.39;62.92;101066.19;5078171;27;70058;-33
2023/01/21 03:44:31;;;;;;;;;;;;;;;29.38;62.78;101061.81;5075864;27;66862;-35
2023/01/21 03:47:08;;;;;;;;;;;;;;;29.39;62.67;101057.25;5081378;27;70184;-35
2023/01/21 03:49:45;;;;;;;;;;;;;;;29.44;61.28;101048.53;5081721;27;66575;-34
2023/01/21 03:52:17;;;;;;;;;;;;;;;29.49;61.44;101051.44;5086852;27;69828;-33
2023/01/21 03:54:48;;;;;;;;;;;;;;;29.51;61.40;101049.38;5083366;27;65870;-33
2023/01/21 03:57:18;;;;;;;;;;;;;;;29.56;60.42;101050.41;5087762;27;68884;-33
2023/01/21 03:59:49;;;;;;;;;;;;;;;29.58;60.38;101045.59;5069947;27;66136;-33
2023/01/21 04:02:20;;;;;;;;;;;;;;;29.64;60.66;101043.97;5081830;27;70335;-33
2023/01/21 04:04:51;;;;;;;;;;;;;;;29.66;61.14;101031.09;5080714;27;65929;-33
2023/01/21 04:07:22;;;;;;;;;;;;;;;29.68;61.21;101029.03;5075253;27;69392;-34
2023/01/21 04:09:53;;;;;;;;;;;;;;;29.71;60.34;101027.78;5083301;27;66608;-33
2023/01/21 04:12:23;;;;;;;;;;;;;;;29.69;60.79;101024.44;5078730;27;70059;-34
2023/01/21 04:14:54;;;;;;;;;;;;;;;29.72;61.31;101019.44;5060950;28;66648;-34
2023/01/21 04:17:24;;;;;;;;;;;;;;;29.78;63.20;101010.50;5080981;27;70677;-37
2023/01/21 04:19:55;;;;;;;;;;;;;;;29.83;62.68;101005.28;5065990;27;65847;-34
2023/01/21 04:22:26;;;;;;;;;;;;;;;29.89;63.14;101003.59;5078640;27;69883;-32
2023/01/21 04:24:56;;;;;;;;;;;;;;;29.90;62.21;100999.88;5080566;27;66504;-34
2023/01/21 04:27:27;;;;;;;;;;;;;;;29.89;61.53;100992.78;5082694;27;69211;-37
2023/01/21 04:29:57;;;;;;;;;;;;;;;29.91;60.62;100995.28;5076304;27;66417;-34
2023/01/21 04:32:28;;;;;;;;;;;;;;;29.94;60.63;100987.59;5062858;27;70333;-33
2023/01/21 04:34:59;;;;;;;;;;;;;;;29.95;59.49;100975.75;5080115;27;65526;-36
2023/01/21 04:37:29;;;;;;;;;;;;;;;29.99;58.00;100973.44;5072856;27;70936;-35
2023/01/21 04:40:00;;;;;;;;;;;;;;;30.04;58.17;100962.81;5083173;27;65509;-40
2023/01/21 04:42:31;;;;;;;;;;;;;;;30.06;57.27;100964.25;5079803;27;71213;-35
2023/01/21 04:45:02;;;;;;;;;;;;;;;30.07;57.99;100962.38;5076460;27;66224;-35
2023/01/21 04:47:33;;;;;;;;;;;;;;;30.01;58.34;100945.13;5081658;27;70086;-37
2023/01/21 04:50:04;;;;;;;;;;;;;;;29.97;59.13;100946.59;5083010;27;65263;-37
2023/01/21 04:52:34;;;;;;;;;;;;;;;29.98;58.95;100942.03;5082177;27;70479;-38
2023/01/21 04:55:05;;;;;;;;;;;;;;;29.96;59.35;100936.00;5080781;27;66851;-38
2023/01/21 04:57:36;;;;;;;;;;;;;;;30.03;59.53;100925.97;5036997;28;70336;-35
2023/01/21 05:00:07;;;;;;;;;;;;;;;30.14;59.88;100919.06;5082153;27;66028;-39
2023/01/21 05:02:39;;;;;;;;;;;;;;;30.21;59.39;100904.47;5079829;27;69550;-36
2023/01/21 05:05:09;;;;;;;;;;;;;;;30.28;59.47;100909.88;5045807;28;66748;-34
2023/01/21 05:07:40;;;;;;;;;;;;;;;30.32;59.34;100885.94;5080525;27;70460;-35
2023/01/21 05:10:14;;;;;;;;;;;;;;;30.38;59.12;100890.47;5055327;28;66934;-37
2023/01/21 05:12:45;;;;;;;;;;;;;;;30.41;59.09;100887.34;5079334;27;70382;-37
2023/01/21 05:15:16;;;;;;;;;;;;;;;30.45;59.00;100884.00;5086071;27;65900;-35
2023/01/21 05:17:47;;;;;;;;;;;;;;;30.48;58.80;100877.31;5082167;27;69249;-38
2023/01/21 05:20:17;;;;;;;;;;;;;;;30.50;58.41;100880.59;5089558;27;67274;-35
2023/01/21 05:22:48;;;;;;;;;;;;;;;30.53;58.62;100874.75;5083202;27;70416;-36
2023/01/21 05:25:19;;;;;;;;;;;;;;;30.56;57.99;100871.59;5074647;27;66371;-35
2023/01/21 05:27:52;;;;;;;;;;;;;;;30.58;58.17;100874.09;5085250;27;70346;-35
2023/01/21 05:30:23;;;;;;;;;;;;;;;30.59;58.53;100857.66;5086509;27;66545;-35
2023/01/21 05:32:54;;;;;;;;;;;;;;;30.43;58.50;100855.47;5053080;27;70127;-35
2023/01/21 05:35:25;;;;;;;;;;;;;;;30.32;59.08;100851.59;5067032;27;65710;-34
2023/01/21 05:37:56;;;;;;;;;;;;;;;30.30;59.90;100842.03;5044267;28;69104;-37
2023/01/21 05:40:28;;;;;;;;;;;;;;;30.27;60.16;100838.69;5051059;28;66766;-34
2023/01/21 05:42:58;;;;;;;;;;;;;;;30.27;60.19;100833.28;5079243;27;70008;-34
2023/01/21 05:45:30;;;;;;;;;;;;;;;30.28;60.06;100818.72;5079868;27;65589;-34
2023/01/21 05:48:00;;;;;;;;;;;;;;;30.35;57.95;100817.84;5063274;27;70257;-36
2023/01/21 05:50:32;;;;;;;;;;;;;;;30.50;56.68;100815.63;5057834;27;66129;-33
2023/01/21 05:53:03;;;;;;;;;;;;;;;30.60;55.76;100816.00;5064511;28;70683;-34
2023/01/21 05:55:36;;;;;;;;;;;;;;;30.68;55.72;100813.00;5072929;27;65354;-34
2023/01/21 05:58:06;;;;;;;;;;;;;;;30.71;55.05;100790.91;5092558;27;69523;-34
2023/01/21 06:00:37;;;;;;;;;;;;;;;30.76;53.83;100786.69;5077669;27;66887;-35
2023/01/21 06:03:08;;;;;;;;;;;;;;;30.67;55.29;100784.28;5052412;28;69267;-36
2023/01/21 06:05:40;;;;;;;;;;;;;;;30.61;56.16;100784.31;5043430;27;65486;-35
2023/01/21 06:08:12;;;;;;;;;;;;;;;30.57;56.65;100783.94;5057466;28;70182;-34
2023/01/21 06:10:43;;;;;;;;;;;;;;;30.56;57.52;100784.16;5069011;28;65708;-35
2023/01/21 06:13:14;;;;;;;;;;;;;;;30.54;58.57;100776.28;5081332;27;70669;-37
2023/01/21 06:15:45;;;;;;;;;;;;;;;30.31;56.02;100776.00;5080804;27;65576;-35
2023/01/21 06:18:15;;;;;;;;;;;;;;;30.05;54.10;100758.88;5078323;27;69702;-36
2023/01/21 06:20:46;;;;;;;;;;;;;;;29.94;53.48;100762.28;5079968;27;65883;-34
2023/01/21 06:23:18;;;;;;;;;;;;;;;29.80;52.68;100750.72;5042794;27;70608;-36
2023/01/21 06:25:48;;;;;;;;;;;;;;;29.78;52.32;100737.44;5082325;27;66889;-35
2023/01/21 06:28:18;;;;;;;;;;;;;;;29.70;51.96;100732.25;5079001;27;70184;-36
2023/01/21 06:30:49;;;;;;;;;;;;;;;29.65;51.24;100726.66;5061783;28;67897;-38
2023/01/21 06:33:20;;;;;;;;;;;;;;;29.60;50.36;100723.75;5062214;28;70105;-36
2023/01/21 06:35:51;;;;;;;;;;;;;;;29.57;50.25;100721.47;5077455;27;66026;-36
2023/01/21 06:38:21;;;;;;;;;;;;;;;29.56;51.03;100711.69;5078656;27;70311;-36
2023/01/21 06:40:52;;;;;;;;;;;;;;;29.59;51.45;100700.47;5077703;27;66201;-37
2023/01/21 06:43:23;;;;;;;;;;;;;;;29.54;50.60;100703.00;5080736;27;69879;-36
2023/01/21 06:45:54;;;;;;;;;;;;;;;29.49;50.53;100695.53;5071780;27;66655;-36
2023/01/21 06:48:25;;;;;;;;;;;;;;;29.45;49.24;100699.72;5082900;27;68567;-37
2023/01/21 06:50:58;;;;;;;;;;;;;;;29.43;49.08;100690.16;5054366;27;66672;-36
2023/01/21 06:53:29;;;;;;;;;;;;;;;29.37;48.82;100692.69;5063924;27;69059;-34
2023/01/21 06:56:00;;;;;;;;;;;;;;;29.32;48.30;100684.38;5079729;27;66641;-38
2023/01/21 06:58:31;;;;;;;;;;;;;;;29.32;48.00;100680.84;5081622;27;69997;-37
2023/01/21 07:01:02;;;;;;;;;;;;;;;29.24;47.19;100673.81;5081460;27;66997;-37
2023/01/21 07:03:32;;;;;;;;;;;;;;;29.25;47.37;100670.06;5072641;27;69852;-41
2023/01/21 07:06:03;;;;;;;;;;;;;;;29.19;47.25;100665.50;5082869;27;67204;-37
2023/01/21 07:08:33;;;;;;;;;;;;;;;29.18;47.19;100661.16;5081139;27;68945;-36
2023/01/21 07:11:04;;;;;;;;;;;;;;;29.17;46.60;100659.53;5050312;28;65311;-39
2023/01/21 07:13:35;;;;;;;;;;;;;;;29.18;46.75;100656.59;5077191;27;70331;-35
2023/01/21 07:16:06;;;;;;;;;;;;;;;29.47;47.20;100653.53;5080043;27;66619;-37
2023/01/21 07:18:37;;;;;;;;;;;;;;;29.56;46.45;100649.53;5042925;27;69790;-37
2023/01/21 07:21:08;;;;;;;;;;;;;;;29.61;46.28;100649.72;5061486;27;66382;-34
2023/01/21 07:23:39;;;;;;;;;;;;;;;29.40;45.77;100638.19;5080623;27;69970;-37
2023/01/21 07:26:10;;;;;;;;;;;;;;;29.35;45.35;100635.31;5081734;27;66217;-37
2023/01/21 07:28:40;;;;;;;;;;;;;;;29.36;45.62;100626.19;5061754;27;69097;-36
2023/01/21 07:31:12;;;;;;;;;;;;;;;29.34;45.32;100630.97;5055926;28;67120;-36
2023/01/21 07:33:42;;;;;;;;;;;;;;;29.37;45.08;100633.22;5081555;27;70008;-38
2023/01/21 07:36:14;;;;;;;;;;;;;;;29.35;45.72;100629.09;5033998;28;65718;-34
2023/01/21 07:38:44;;;;;;;;;;;;;;;29.36;45.15;100637.00;5079831;27;70407;-36
2023/01/21 07:41:14;;;;;;;;;;;;;;;29.36;45.49;100637.00;5069887;28;65459;-36
2023/01/21 07:43:48;;;;;;;;;;;;;;;29.32;45.00;100632.22;5078190;27;70427;-35
2023/01/21 07:46:19;;;;;;;;;;;;;;;29.34;44.78;100622.03;5079098;27;66836;-37
2023/01/21 07:48:51;;;;;;;;;;;;;;;29.30;44.14;100620.78;5062553;28;69975;-35
2023/01/21 07:51:21;;;;;;;;;;;;;;;29.30;44.80;100632.41;5086262;27;66153;-35
2023/01/21 07:53:55;;;;;;;;;;;;;;;29.28;43.85;100621.03;5080985;27;68662;-36
2023/01/21 07:56:26;;;;;;;;;;;;;;;29.25;43.69;100617.91;5080482;27;66714;-35
2023/01/21 07:58:56;;;;;;;;;;;;;;;29.23;43.75;100614.63;5080796;27;71060;-35
2023/01/21 08:01:29;;;;;;;;;;;;;;;29.29;45.53;100609.16;5079958;27;66364;-35
2023/01/21 08:04:00;;;;;;;;;;;;;;;29.29;45.71;100606.47;5080670;27;69904;-34
2023/01/21 08:06:31;;;;;;;;;;;;;;;29.34;47.26;100606.66;5053145;27;66347;-37
2023/01/21 08:09:01;;;;;;;;;;;;;;;29.38;47.40;100602.44;5078390;28;70371;-35
2023/01/21 08:11:32;;;;;;;;;;;;;;;29.43;47.36;100603.69;5073762;27;66638;-38
2023/01/21 08:14:02;;;;;;;;;;;;;;;29.40;46.20;100600.38;5060975;28;70684;-36
2023/01/21 08:16:33;;;;;;;;;;;;;;;29.41;46.68;100601.19;5081843;27;66149;-35
2023/01/21 08:19:04;;;;;;;;;;;;;;;29.49;45.94;100589.31;5078246;27;70728;-37
2023/01/21 08:21:34;;;;;;;;;;;;;;;29.65;51.72;100591.50;5078436;28;67068;-36
2023/01/21 08:24:05;;;;;;;;;;;;;;;29.95;54.52;100585.44;5055293;28;70151;-37
2023/01/21 08:26:36;;;;;;;;;;;;;;;30.14;55.10;100584.44;5056032;28;63809;-35
2023/01/21 08:29:06;;;;;;;;;;;;;;;30.24;55.38;100578.56;5079010;28;69124;-36
2023/01/21 08:31:37;;;;;;;;;;;;;;;30.34;55.94;100573.47;5078189;28;66738;-37
2023/01/21 08:34:08;;;;;;;;;;;;;;;30.42;55.30;100577.75;5077696;27;68002;-37
2023/01/21 08:36:38;;;;;;;;;;;;;;;30.49;55.73;100582.03;5082362;27;65104;-39
2023/01/21 08:39:11;;;;;;;;;;;;;;;30.55;55.96;100580.31;5084265;27;70190;-37
2023/01/21 08:41:43;;;;;;;;;;;;;;;30.58;55.88;100582.56;5084174;27;66934;-36
2023/01/21 08:44:13;;;;;;;;;;;;;;;30.61;56.32;100579.41;5092369;27;70189;-36
2023/01/21 08:46:44;;;;;;;;;;;;;;;30.67;56.20;100581.22;5086976;27;65264;-36
2023/01/21 08:49:15;;;;;;;;;;;;;;;30.72;56.50;100584.06;5082323;27;70003;-39
2023/01/21 08:51:46;;;;;;;;;;;;;;;30.85;56.52;100574.16;5069321;27;65280;-35
2023/01/21 08:54:16;;;;;;;;;;;;;;;30.89;56.92;100575.34;5079946;27;70850;-36
2023/01/21 08:56:47;;;;;;;;;;;;;;;30.93;56.97;100582.81;5082497;27;66206;-37
2023/01/21 08:59:20;;;;;;;;;;;;;;;30.98;57.04;100574.00;5085278;27;70223;-38
2023/01/21 09:01:51;;;;;;;;;;;;;;;31.06;57.03;100583.69;5084807;27;66910;-37
2023/01/21 09:04:22;;;;;;;;;;;;;;;31.09;57.30;100575.94;5090943;27;70125;-37
2023/01/21 09:06:52;;;;;;;;;;;;;;;31.10;57.25;100580.28;5089248;27;65982;-37
2023/01/21 09:09:23;;;;;;;;;;;;;;;31.11;57.48;100571.09;5084838;27;69121;-37
2023/01/21 09:11:53;;;;;;;;;;;;;;;31.14;57.64;100581.47;5086738;27;65392;-36
2023/01/21 09:14:25;;;;;;;;;;;;;;;31.19;57.46;100590.81;5050099;28;69713;-38
2023/01/21 09:16:56;;;;;;;;;;;;;;;31.16;57.03;100575.84;5093591;27;67073;-38
2023/01/21 09:19:27;;;;;;;;;;;;;;;31.19;57.64;100585.41;5088321;27;69216;-36
2023/01/21 09:21:57;;;;;;;;;;;;;;;31.19;57.39;100586.22;5086649;27;65969;-37
2023/01/21 09:24:28;;;;;;;;;;;;;;;31.20;57.22;100589.75;5077435;27;70836;-38
2023/01/21 09:26:58;;;;;;;;;;;;;;;31.21;57.41;100594.13;5090662;27;66633;-38
2023/01/21 09:29:28;;;;;;;;;;;;;;;31.22;57.30;100590.34;5093838;27;70488;-36
2023/01/21 09:31:59;;;;;;;;;;;;;;;31.26;57.99;100591.53;5083973;27;66151;-35
2023/01/21 09:34:30;;;;;;;;;;;;;;;31.39;58.01;100586.78;5083994;27;70788;-36
2023/01/21 09:37:04;;;;;;;;;;;;;;;31.37;57.95;100593.50;5086039;27;66726;-37
2023/01/21 09:39:34;;;;;;;;;;;;;;;31.37;58.20;100599.75;5092378;27;69669;-36
2023/01/21 09:42:14;;;;;;;;;;;;;;;31.35;58.76;100601.00;5091925;27;66364;-38
2023/01/21 09:44:47;;;;;;;;;;;;;;;31.36;58.54;100597.28;5087535;27;70529;-37
2023/01/21 09:47:23;;;;;;;;;;;;;;;31.37;58.98;100601.63;5086482;27;65393;-36
2023/01/21 09:50:07;;;;;;;;;;;;;;;31.37;59.65;100596.19;5087091;27;69842;-41
2023/01/21 09:52:43;;;;;;;;;;;;;;;31.39;59.84;100602.22;5070252;27;66037;-39
2023/01/21 09:55:18;;;;;;;;;;;;;;;31.40;59.83;100598.47;5086425;27;70242;-37
2023/01/21 09:57:54;;;;;;;;;;;;;;;31.45;59.65;100601.28;5092481;27;67478;-36
2023/01/21 10:00:30;;;;;;;;;;;;;;;31.45;59.55;100614.03;5092478;27;70391;-37
2023/01/21 10:03:03;;;;;;;;;;;;;;;31.47;60.32;100603.78;5091970;27;66764;-38
2023/01/21 10:05:33;;;;;;;;;;;;;;;31.47;60.69;100610.03;5088490;27;69425;-35
2023/01/21 10:08:22;;;;;;;;;;;;;;;31.59;59.87;100619.03;5093083;27;66651;-37
2023/01/21 10:11:13;;;;;;;;;;;;;;;31.65;60.18;100617.28;5086996;27;69112;-36
2023/01/21 10:14:13;;;;;;;;;;;;;;;31.68;60.14;100614.13;5086287;27;66856;-36
2023/01/21 10:17:01;;;;;;;;;;;;;;;31.68;61.17;100615.97;5069137;27;70707;-37
2023/01/21 10:19:38;;;;;;;;;;;;;;;31.65;61.07;100624.56;5069539;27;65543;-35
2023/01/21 10:22:13;;;;;;;;;;;;;;;31.60;60.80;100631.53;5069175;27;69429;-38
2023/01/21 10:24:49;;;;;;;;;;;;;;;31.56;61.31;100637.63;5088451;27;66109;-37
2023/01/21 10:27:21;;;;;;;;;;;;;;;31.57;60.99;100632.00;5054615;27;69917;-38
2023/01/21 10:29:59;;;;;;;;;;;;;;;31.56;62.24;100641.16;5075343;27;65680;-36
2023/01/21 10:32:32;;;;;;;;;;;;;;;31.56;62.44;100645.78;5085818;27;69122;-35
2023/01/21 10:35:12;;;;;;;;;;;;;;;31.80;61.72;100647.50;5086679;27;66353;-37
2023/01/21 10:37:47;;;;;;;;;;;;;;;31.95;61.00;100655.22;5086755;27;69821;-37
2023/01/21 10:40:42;;;;;;;;;;;;;;;32.03;60.38;100662.19;5089339;27;66052;-37
2023/01/21 10:43:15;;;;;;;;;;;;;;;32.11;60.30;100663.75;5085050;27;68974;-37
2023/01/21 10:45:46;;;;;;;;;;;;;;;32.13;60.47;100667.06;5081625;27;65937;-39
2023/01/21 10:48:26;;;;;;;;;;;;;;;32.14;60.30;100674.13;5083300;27;69757;-37
2023/01/21 10:51:18;;;;;;;;;;;;;;;32.18;60.10;100673.44;5065868;27;66696;-38
2023/01/21 10:53:55;;;;;;;;;;;;;;;32.20;59.74;100670.47;5080098;27;69253;-37
2023/01/21 10:56:29;;;;;;;;;;;;;;;32.22;59.82;100680.03;5084936;27;65822;-38
2023/01/21 10:59:08;;;;;;;;;;;;;;;32.24;60.06;100685.25;5081185;27;69589;-38
2023/01/21 11:01:41;;;;;;;;;;;;;;;32.24;60.24;100690.69;5081610;27;66940;-37
2023/01/21 11:04:17;;;;;;;;;;;;;;;32.25;60.15;100693.13;5082063;27;71230;-37
2023/01/21 11:07:14;;;;;;;;;;;;;;;32.26;60.05;100702.09;5081859;27;64926;-37
2023/01/21 11:09:46;;;;;;;;;;;;;;;32.26;60.22;100704.81;5082201;27;70370;-38
2023/01/21 11:12:18;;;;;;;;;;;;;;;32.24;60.39;100701.53;5085299;27;66238;-37
2023/01/21 11:14:54;;;;;;;;;;;;;;;32.24;60.17;100702.34;5064982;27;70069;-37
2023/01/21 11:17:35;;;;;;;;;;;;;;;32.24;60.69;100715.09;5051842;27;65256;-36
2023/01/21 11:20:18;;;;;;;;;;;;;;;32.22;60.61;100714.50;5083193;27;69808;-37
2023/01/21 11:22:50;;;;;;;;;;;;;;;32.23;60.38;100724.28;5081136;27;66305;-36
2023/01/21 11:25:40;;;;;;;;;;;;;;;32.21;60.75;100729.16;5081848;27;70154;-39
2023/01/21 11:28:25;;;;;;;;;;;;;;;31.89;60.80;100688.69;5061293;27;66985;-40
2023/01/21 11:31:07;;;;;;;;;;;;;;;32.19;60.84;100742.09;5078110;27;70415;-42
2023/01/21 11:33:39;;;;;;;;;;;;;;;31.98;61.78;100747.03;5021354;27;66145;-37
2023/01/21 11:36:11;;;;;;;;;;;;;;;31.75;62.46;100753.13;5078692;27;70225;-36
2023/01/21 11:38:42;;;;;;;;;;;;;;;31.69;63.59;100753.22;5076057;27;65452;-37
2023/01/21 11:41:13;;;;;;;;;;;;;;;31.58;64.35;100755.66;5075459;27;69806;-40
2023/01/21 11:43:45;;;;;;;;;;;;;;;31.54;64.80;100754.47;5078020;27;66171;-36
2023/01/21 11:46:27;;;;;;;;;;;;;;;31.55;64.74;100766.94;5075843;27;69752;-37
2023/01/21 11:49:18;;;;;;;;;;;;;;;31.51;65.43;100771.19;5077664;27;66360;-35
2023/01/21 11:51:49;;;;;;;;;;;;;;;31.52;65.92;100775.53;5079405;27;69327;-37
2023/01/21 11:54:21;;;;;;;;;;;;;;;31.46;66.07;100776.47;5062869;28;65599;-39
2023/01/21 11:56:56;;;;;;;;;;;;;;;31.50;66.50;100785.78;5061007;28;70145;-35
2023/01/21 11:59:34;;;;;;;;;;;;;;;31.50;66.88;100793.91;5077661;27;66818;-39
2023/01/21 12:02:10;;;;;;;;;;;;;;;31.47;67.08;100794.38;5064264;27;70383;-38
2023/01/21 12:05:01;;;;;;;;;;;;;;;31.49;67.31;100803.13;5076916;27;66409;-36
2023/01/21 12:07:33;;;;;;;;;;;;;;;31.48;67.42;100812.31;5079010;27;69844;-38
2023/01/21 12:10:22;;;;;;;;;;;;;;;31.46;67.14;100813.59;5076401;27;67000;-39
2023/01/21 12:13:11;;;;;;;;;;;;;;;31.42;67.05;100810.47;5061810;27;67977;-38
2023/01/21 12:15:42;;;;;;;;;;;;;;;31.41;67.50;100816.97;5079180;27;65632;-36
2023/01/21 12:18:20;;;;;;;;;;;;;;;31.43;67.42;100820.28;5079098;27;69339;-37
2023/01/21 12:20:54;;;;;;;;;;;;;;;31.41;67.46;100830.53;5053491;28;66278;-39
2023/01/21 12:23:40;;;;;;;;;;;;;;;31.40;67.66;100842.44;5080110;27;70361;-37
2023/01/21 12:26:19;;;;;;;;;;;;;;;31.39;68.09;100844.28;5077979;27;65507;-37
2023/01/21 12:29:02;;;;;;;;;;;;;;;31.38;68.50;100860.78;5072599;27;70489;-39
2023/01/21 12:31:48;;;;;;;;;;;;;;;31.41;68.56;100860.34;5073987;27;65680;-36
2023/01/21 12:34:37;;;;;;;;;;;;;;;31.43;68.81;100869.09;5049121;27;69960;-35
2023/01/21 12:37:25;;;;;;;;;;;;;;;31.42;69.38;100877.41;5083718;27;66731;-36
2023/01/21 12:39:57;;;;;;;;;;;;;;;31.44;69.64;100881.56;5057481;27;68756;-36
2023/01/21 12:42:32;;;;;;;;;;;;;;;31.43;70.09;100885.34;5081421;27;66689;-36
2023/01/21 12:45:12;;;;;;;;;;;;;;;31.43;70.09;100882.63;5078659;27;69637;-37
2023/01/21 12:47:47;;;;;;;;;;;;;;;31.43;69.75;100885.34;5067275;27;66253;-37
2023/01/21 12:50:22;;;;;;;;;;;;;;;31.41;69.52;100887.44;5080099;27;69316;-36
2023/01/21 12:53:02;;;;;;;;;;;;;;;31.40;69.73;100888.50;5078801;27;67423;-36
2023/01/21 12:55:41;;;;;;;;;;;;;;;31.40;69.77;100883.09;5079332;27;70388;-41
2023/01/21 12:58:17;;;;;;;;;;;;;;;31.39;69.67;100894.97;5079293;27;66597;-39
2023/01/21 13:00:50;;;;;;;;;;;;;;;31.40;70.31;100896.63;5089583;27;70096;-39
2023/01/21 13:03:45;;;;;;;;;;;;;;;31.41;71.38;100898.28;5083782;27;66544;-37
2023/01/21 13:06:21;;;;;;;;;;;;;;;31.43;72.67;100901.63;5086436;27;69174;-36
2023/01/21 13:09:13;;;;;;;;;;;;;;;31.44;72.84;100907.84;5084265;27;66045;-40
2023/01/21 13:11:49;;;;;;;;;;;;;;;31.45;73.08;100915.75;5084422;27;70131;-37
2023/01/21 13:14:27;;;;;;;;;;;;;;;31.41;72.58;100911.03;5061780;27;65982;-39